createdAt,value
2018-06-13T00:00:48.116Z,5.07
2018-06-13T00:03:17.206Z,4.83
2018-06-13T00:05:46.157Z,5.07
2018-06-13T00:08:15.198Z,4.43
2018-06-13T00:10:44.161Z,4.77
2018-06-13T00:13:13.216Z,4.80
2018-06-13T00:15:42.194Z,5.57
2018-06-13T00:18:11.216Z,4.90
2018-06-13T00:20:40.256Z,5.17
2018-06-13T00:23:09.183Z,5.20
2018-06-13T00:25:38.327Z,5.57
2018-06-13T00:28:07.328Z,5.33
2018-06-13T00:30:36.326Z,5.37
2018-06-13T00:33:05.282Z,4.73
2018-06-13T00:35:34.258Z,4.80
2018-06-13T00:38:03.211Z,5.90
2018-06-13T00:40:32.216Z,5.97
2018-06-13T00:43:01.223Z,4.67
2018-06-13T00:45:30.170Z,5.67
2018-06-13T00:47:59.143Z,4.77
2018-06-13T00:50:28.137Z,5.47
2018-06-13T00:52:57.066Z,5.53
2018-06-13T00:55:26.100Z,4.93
2018-06-13T00:57:55.069Z,5.37
2018-06-13T01:00:24.044Z,4.90
2018-06-13T01:02:53.060Z,5.00
2018-06-13T01:05:22.037Z,5.30
2018-06-13T01:07:50.989Z,4.77
2018-06-13T01:10:19.998Z,5.60
2018-06-13T01:12:48.997Z,5.03
2018-06-13T01:15:18.086Z,5.50
2018-06-13T01:17:47.050Z,5.20
2018-06-13T01:20:16.120Z,5.77
2018-06-13T01:22:45.070Z,5.33
2018-06-13T01:25:14.058Z,4.90
2018-06-13T01:27:43.038Z,4.70
2018-06-13T01:30:11.974Z,5.33
2018-06-13T01:32:40.919Z,4.97
2018-06-13T01:35:09.879Z,5.37
2018-06-13T01:37:38.846Z,5.13
2018-06-13T01:40:07.782Z,4.50
2018-06-13T01:42:36.761Z,4.93
2018-06-13T01:45:05.963Z,5.53
2018-06-13T01:47:34.950Z,4.60
2018-06-13T01:50:03.937Z,4.77
2018-06-13T01:52:33.762Z,5.13
2018-06-13T01:55:02.737Z,4.70
2018-06-13T01:57:32.107Z,5.00
2018-06-13T02:00:01.052Z,5.47
2018-06-13T02:02:30.090Z,5.43
2018-06-13T02:04:59.062Z,4.87
2018-06-13T02:07:28.035Z,5.37
2018-06-13T02:09:57.062Z,4.73
2018-06-13T02:12:26.035Z,5.50
2018-06-13T02:14:54.978Z,4.87
2018-06-13T02:17:23.970Z,5.57
2018-06-13T02:19:53.197Z,5.50
2018-06-13T02:22:22.126Z,4.93
2018-06-13T02:24:52.025Z,4.90
2018-06-13T02:27:21.136Z,5.53
2018-06-13T02:29:50.052Z,5.60
2018-06-13T02:32:18.999Z,5.30
2018-06-13T02:34:47.969Z,5.60
2018-06-13T02:37:16.935Z,4.83
2018-06-13T02:39:45.929Z,4.87
2018-06-13T02:42:14.956Z,5.60
2018-06-13T02:44:43.926Z,5.27
2018-06-13T02:47:12.890Z,5.07
2018-06-13T02:49:41.890Z,5.47
2018-06-13T02:52:10.986Z,5.73
2018-06-13T02:54:39.990Z,5.13
2018-06-13T02:57:08.962Z,5.53
2018-06-13T02:59:38.045Z,5.80
2018-06-13T03:02:07.035Z,4.63
2018-06-13T03:04:36.037Z,5.93
2018-06-13T03:07:05.232Z,4.73
2018-06-13T03:09:34.252Z,4.73
2018-06-13T03:12:03.270Z,5.23
2018-06-13T03:14:32.323Z,5.03
2018-06-13T03:17:01.340Z,4.67
2018-06-13T03:19:30.311Z,4.93
2018-06-13T03:21:59.361Z,4.67
2018-06-13T03:24:28.350Z,5.57
2018-06-13T03:26:57.335Z,4.77
2018-06-13T03:29:26.343Z,4.93
2018-06-13T03:31:55.325Z,4.67
2018-06-13T03:34:24.309Z,5.10
2018-06-13T03:36:53.291Z,5.10
2018-06-13T03:39:22.344Z,4.40
2018-06-13T03:41:51.303Z,3.87
2018-06-13T03:44:20.287Z,4.67
2018-06-13T03:46:49.256Z,4.50
2018-06-13T03:49:18.278Z,4.50
2018-06-13T03:51:47.234Z,4.93
2018-06-13T03:54:16.322Z,4.70
2018-06-13T03:56:45.313Z,3.77
2018-06-13T03:59:14.299Z,4.27
2018-06-13T04:01:43.348Z,4.37
2018-06-13T04:04:12.306Z,4.53
2018-06-13T04:06:41.316Z,3.93
2018-06-13T04:09:10.269Z,3.73
2018-06-13T04:11:39.263Z,4.10
2018-06-13T04:14:08.238Z,4.23
2018-06-13T04:16:37.227Z,3.97
2018-06-13T04:19:06.187Z,4.57
2018-06-13T04:21:35.191Z,4.73
2018-06-13T04:24:04.340Z,4.37
2018-06-13T04:26:33.427Z,4.40
2018-06-13T04:29:01.481Z,4.50
2018-06-13T04:31:30.263Z,3.80
2018-06-13T04:33:59.247Z,4.40
2018-06-13T04:36:28.550Z,4.30
2018-06-13T04:38:57.566Z,4.77
2018-06-13T04:41:26.630Z,4.47
2018-06-13T04:43:55.626Z,4.23
2018-06-13T04:46:24.645Z,3.93
2018-06-13T04:48:54.099Z,3.70
2018-06-13T04:51:23.111Z,3.77
2018-06-13T04:53:52.110Z,4.17
2018-06-13T04:56:21.110Z,3.60
2018-06-13T04:58:50.077Z,4.07
2018-06-13T05:01:19.074Z,4.67
2018-06-13T05:03:48.101Z,3.27
2018-06-13T05:06:17.064Z,3.77
2018-06-13T05:08:46.058Z,4.07
2018-06-13T05:11:15.156Z,4.50
2018-06-13T05:13:44.242Z,3.87
2018-06-13T05:16:13.246Z,4.87
2018-06-13T05:18:42.219Z,4.37
2018-06-13T05:21:11.511Z,4.20
2018-06-13T05:23:40.473Z,3.53
2018-06-13T05:26:09.426Z,5.13
2018-06-13T05:28:38.444Z,4.47
2018-06-13T05:31:07.428Z,4.43
2018-06-13T05:33:36.435Z,3.83
2018-06-13T05:36:05.416Z,5.13
2018-06-13T05:38:34.424Z,3.87
2018-06-13T05:41:03.393Z,3.47
2018-06-13T05:43:32.359Z,3.00
2018-06-13T05:46:01.763Z,3.13
2018-06-13T05:48:30.728Z,3.07
2018-06-13T05:50:59.757Z,3.17
2018-06-13T05:53:28.831Z,3.00
2018-06-13T05:55:57.822Z,3.63
2018-06-13T05:58:26.824Z,3.60
2018-06-13T06:01:02.619Z,3.23
2018-06-13T06:03:31.571Z,2.87
2018-06-13T06:06:00.510Z,3.30
2018-06-13T06:08:29.669Z,3.23
2018-06-13T06:10:58.981Z,3.23
2018-06-13T06:13:27.922Z,3.30
2018-06-13T06:15:56.944Z,3.00
2018-06-13T06:18:25.955Z,3.13
2018-06-13T06:20:55.035Z,3.10
2018-06-13T06:23:23.980Z,3.67
2018-06-13T06:25:52.955Z,3.77
2018-06-13T06:28:21.995Z,3.07
2018-06-13T06:30:51.181Z,2.70
2018-06-13T06:33:20.178Z,2.90
2018-06-13T06:35:49.165Z,2.90
2018-06-13T06:38:18.121Z,2.83
2018-06-13T06:40:47.171Z,3.20
2018-06-13T06:43:16.108Z,2.97
2018-06-13T06:45:45.096Z,3.00
2018-06-13T06:48:14.421Z,3.03
2018-06-13T06:50:43.562Z,2.53
2018-06-13T06:53:12.550Z,2.40
2018-06-13T06:55:41.520Z,3.30
2018-06-13T06:58:10.471Z,3.20
2018-06-13T07:00:39.459Z,2.93
2018-06-13T07:03:08.471Z,3.37
2018-06-13T07:05:37.527Z,2.83
2018-06-13T07:08:06.572Z,3.07
2018-06-13T07:10:35.813Z,3.07
2018-06-13T07:13:04.744Z,3.23
2018-06-13T07:15:33.692Z,3.13
2018-06-13T07:18:02.653Z,2.50
2018-06-13T07:20:31.610Z,2.90
2018-06-13T07:23:00.596Z,2.83
2018-06-13T07:25:29.568Z,2.67
2018-06-13T07:27:58.533Z,2.80
2018-06-13T07:30:27.473Z,2.80
2018-06-13T07:32:56.483Z,3.57
2018-06-13T07:35:25.451Z,2.57
2018-06-13T07:37:54.445Z,2.63
2018-06-13T07:40:23.384Z,2.97
2018-06-13T07:42:52.340Z,3.43
2018-06-13T07:45:21.297Z,2.67
2018-06-13T07:47:50.257Z,2.90
2018-06-13T07:50:19.207Z,2.77
2018-06-13T07:52:48.174Z,2.50
2018-06-13T07:55:17.190Z,2.50
2018-06-13T07:57:46.057Z,2.37
2018-06-13T08:00:15.026Z,2.57
2018-06-13T08:02:44.096Z,3.00
2018-06-13T08:05:13.080Z,2.90
2018-06-13T08:07:42.048Z,2.97
2018-06-13T08:10:11.073Z,2.67
2018-06-13T08:12:40.128Z,2.60
2018-06-13T08:15:09.139Z,2.30
2018-06-13T08:17:38.129Z,2.83
2018-06-13T08:20:07.107Z,2.40
2018-06-13T08:22:36.085Z,2.27
2018-06-13T08:25:05.061Z,2.57
2018-06-13T08:27:34.016Z,2.70
2018-06-13T08:30:02.977Z,2.63
2018-06-13T08:32:31.924Z,2.20
2018-06-13T08:35:00.860Z,2.40
2018-06-13T08:37:29.845Z,2.90
2018-06-13T08:39:58.806Z,3.37
2018-06-13T08:42:27.786Z,3.20
2018-06-13T08:44:56.759Z,2.13
2018-06-13T08:47:25.717Z,2.77
2018-06-13T08:49:54.668Z,3.03
2018-06-13T08:52:23.977Z,2.73
2018-06-13T08:54:52.983Z,2.30
2018-06-13T08:57:21.973Z,2.27
2018-06-13T08:59:50.969Z,2.60
2018-06-13T09:02:19.933Z,3.20
2018-06-13T09:04:48.876Z,3.00
2018-06-13T09:07:17.835Z,2.30
2018-06-13T09:09:46.818Z,2.33
2018-06-13T09:12:16.103Z,2.47
2018-06-13T09:14:45.056Z,2.60
2018-06-13T09:17:14.033Z,2.83
2018-06-13T09:19:42.965Z,3.20
2018-06-13T09:22:11.990Z,2.50
2018-06-13T09:24:40.984Z,2.57
2018-06-13T09:27:09.961Z,2.97
2018-06-13T09:29:38.921Z,3.03
2018-06-13T09:32:08.139Z,2.70
2018-06-13T09:34:37.083Z,2.50
2018-06-13T09:37:06.059Z,2.63
2018-06-13T09:39:35.020Z,2.83
2018-06-13T09:42:03.995Z,2.63
2018-06-13T09:44:32.973Z,2.90
2018-06-13T09:47:06.905Z,2.30
2018-06-13T09:49:30.897Z,2.90
2018-06-13T09:51:59.868Z,2.30
2018-06-13T09:54:28.846Z,2.40
2018-06-13T09:56:57.819Z,2.63
2018-06-13T09:59:31.135Z,2.40
2018-06-13T10:02:05.450Z,1.97
2018-06-13T10:04:34.457Z,1.90
2018-06-13T10:07:03.370Z,2.03
2018-06-13T10:09:32.326Z,2.03
2018-06-13T10:12:01.295Z,1.83
2018-06-13T10:14:30.288Z,1.90
2018-06-13T10:16:59.239Z,1.40
2018-06-13T10:19:28.247Z,2.20
2018-06-13T10:21:57.237Z,2.00
2018-06-13T10:24:26.311Z,1.70
2018-06-13T10:26:55.524Z,1.87
2018-06-13T10:29:24.574Z,1.80
2018-06-13T10:31:53.641Z,2.30
2018-06-13T10:34:22.828Z,2.00
2018-06-13T10:36:52.087Z,2.47
2018-06-13T10:39:21.051Z,2.00
2018-06-13T10:41:50.057Z,2.40
2018-06-13T10:44:19.016Z,2.43
2018-06-13T10:46:48.035Z,2.73
2018-06-13T10:49:17.066Z,2.40
2018-06-13T10:51:46.118Z,3.33
2018-06-13T10:54:15.070Z,2.40
2018-06-13T10:56:44.032Z,2.20
2018-06-13T10:59:13.173Z,2.57
2018-06-13T11:01:42.217Z,2.60
2018-06-13T11:04:11.170Z,2.43
2018-06-13T11:06:40.158Z,2.53
2018-06-13T11:09:09.136Z,2.87
2018-06-13T11:11:38.097Z,2.33
2018-06-13T11:14:07.097Z,2.47
2018-06-13T11:16:36.057Z,3.07
2018-06-13T11:19:05.034Z,2.87
2018-06-13T11:21:34.051Z,2.03
2018-06-13T11:24:03.073Z,2.53
2018-06-13T11:26:32.007Z,2.50
2018-06-13T11:29:01.017Z,2.67
2018-06-13T11:31:30.032Z,2.30
2018-06-13T11:33:58.983Z,2.43
2018-06-13T11:36:28.006Z,2.17
2018-06-13T11:38:57.035Z,2.60
2018-06-13T11:41:26.019Z,2.60
2018-06-13T11:43:54.992Z,2.13
2018-06-13T11:46:23.960Z,2.27
2018-06-13T11:48:52.964Z,2.40
2018-06-13T11:51:22.065Z,2.53
2018-06-13T11:53:51.078Z,2.07
2018-06-13T11:56:20.079Z,2.47
2018-06-13T11:58:49.114Z,2.13
2018-06-13T12:01:19.899Z,2.33
2018-06-13T12:03:49.009Z,2.20
2018-06-13T12:06:18.093Z,2.63
2018-06-13T12:08:47.162Z,2.40
2018-06-13T12:11:16.191Z,2.37
2018-06-13T12:13:45.158Z,2.30
2018-06-13T12:16:14.152Z,3.93
2018-06-13T12:18:43.117Z,2.33
2018-06-13T12:21:12.334Z,2.43
2018-06-13T12:23:41.312Z,2.30
2018-06-13T12:26:10.288Z,2.33
2018-06-13T12:28:39.299Z,2.20
2018-06-13T12:31:08.303Z,2.03
2018-06-13T12:33:37.275Z,1.60
2018-06-13T12:36:06.258Z,1.40
2018-06-13T12:38:35.219Z,1.60
2018-06-13T12:41:04.878Z,1.30
2018-06-13T12:43:33.852Z,1.97
2018-06-13T12:46:03.088Z,1.33
2018-06-13T12:48:32.035Z,1.37
2018-06-13T12:51:01.036Z,1.30
2018-06-13T12:53:30.001Z,1.57
2018-06-13T12:55:58.953Z,2.10
2018-06-13T12:58:27.919Z,1.23
2018-06-13T13:00:57.140Z,1.33
2018-06-13T13:03:26.202Z,1.20
2018-06-13T13:05:55.168Z,1.40
2018-06-13T13:08:24.115Z,1.30
2018-06-13T13:10:53.473Z,1.50
2018-06-13T13:13:22.522Z,1.40
2018-06-13T13:15:51.502Z,2.03
2018-06-13T13:18:20.503Z,2.10
2018-06-13T13:20:50.241Z,1.30
2018-06-13T13:23:19.383Z,1.30
2018-06-13T13:25:48.423Z,1.50
2018-06-13T13:28:17.522Z,1.63
2018-06-13T13:30:46.618Z,1.10
2018-06-13T13:33:15.629Z,1.70
2018-06-13T13:35:44.679Z,1.73
2018-06-13T13:38:13.636Z,1.47
2018-06-13T13:40:42.636Z,1.40
2018-06-13T13:43:11.607Z,1.50
2018-06-13T13:45:40.607Z,1.43
2018-06-13T13:48:09.570Z,1.43
2018-06-13T13:50:38.624Z,1.40
2018-06-13T13:53:07.721Z,1.53
2018-06-13T13:55:36.843Z,1.30
2018-06-13T13:58:05.914Z,1.30
2018-06-13T14:00:34.957Z,1.40
2018-06-13T14:03:03.952Z,1.83
